createdAt,value
2023-03-11T00:00:10.612Z,20.44
2023-03-11T00:01:10.644Z,20.41
2023-03-11T00:02:10.792Z,20.42
2023-03-11T00:03:10.734Z,20.41
2023-03-11T00:04:10.759Z,20.44
2023-03-11T00:05:10.814Z,20.40
2023-03-11T00:06:10.819Z,20.42
2023-03-11T00:07:10.861Z,20.38
2023-03-11T00:08:10.925Z,20.40
2023-03-11T00:09:10.978Z,20.40
2023-03-11T00:10:11.032Z,20.42
2023-03-11T00:11:11.090Z,20.42
2023-03-11T00:12:11.103Z,20.41
2023-03-11T00:13:11.149Z,20.42
2023-03-11T00:14:11.279Z,20.41
2023-03-11T00:15:11.269Z,20.40
2023-03-11T00:16:11.365Z,20.40
2023-03-11T00:17:11.366Z,20.38
2023-03-11T00:19:11.476Z,20.40
2023-03-11T00:20:11.530Z,20.40
2023-03-11T00:21:11.642Z,20.40
2023-03-11T00:22:11.681Z,20.38
2023-03-11T00:23:11.719Z,20.38
2023-03-11T00:24:11.757Z,20.40
2023-03-11T00:25:11.815Z,20.41
2023-03-11T00:26:11.867Z,20.37
2023-03-11T00:27:11.954Z,20.38
2023-03-11T00:28:11.981Z,20.38
2023-03-11T00:29:12.034Z,20.40
2023-03-11T00:30:12.093Z,20.40
2023-03-11T00:31:12.232Z,20.40
2023-03-11T00:32:12.310Z,20.38
2023-03-11T00:33:12.271Z,20.35
2023-03-11T00:34:12.312Z,20.37
2023-03-11T00:35:12.356Z,20.38
2023-03-11T00:36:12.471Z,20.40
2023-03-11T00:37:12.469Z,20.38
2023-03-11T00:38:12.521Z,20.38
2023-03-11T00:39:12.579Z,20.40
2023-03-11T00:40:12.630Z,20.37
2023-03-11T00:41:12.697Z,20.37
2023-03-11T00:42:12.747Z,20.37
2023-03-11T00:43:12.795Z,20.38
2023-03-11T00:44:12.859Z,20.37
2023-03-11T00:45:12.880Z,20.38
2023-03-11T00:46:13.293Z,20.38
2023-03-11T00:47:12.996Z,20.38
2023-03-11T00:48:13.053Z,20.37
2023-03-11T00:49:13.115Z,20.38
2023-03-11T00:50:13.188Z,20.37
2023-03-11T00:51:13.226Z,20.38
2023-03-11T00:52:13.276Z,20.40
2023-03-11T00:53:13.344Z,20.38
2023-03-11T00:54:13.385Z,20.38
2023-03-11T00:55:13.439Z,20.35
2023-03-11T02:25:19.206Z,20.30
2023-03-11T02:34:18.924Z,20.28
2023-03-11T02:35:18.973Z,20.30
2023-03-11T02:36:19.088Z,20.28
2023-03-11T02:37:19.068Z,20.25
2023-03-11T02:38:19.157Z,20.27
2023-03-11T02:39:19.185Z,20.25
2023-03-11T02:40:19.241Z,20.28
2023-03-11T02:41:19.312Z,20.25
2023-03-11T02:42:19.354Z,20.25
2023-03-11T02:43:19.399Z,20.28
2023-03-11T02:44:19.482Z,20.27
2023-03-11T02:45:20.223Z,20.25
2023-03-11T02:46:19.629Z,20.25
2023-03-11T02:47:19.660Z,20.27
2023-03-11T02:48:19.731Z,20.25
2023-03-11T02:49:19.775Z,20.27
2023-03-11T02:50:19.841Z,20.24
2023-03-11T02:51:19.900Z,20.24
2023-03-11T02:52:20.016Z,20.24
2023-03-11T02:53:20.125Z,20.27
2023-03-11T02:54:20.720Z,20.27
2023-03-11T02:55:20.169Z,20.27
2023-03-11T02:56:20.219Z,20.25
2023-03-11T02:57:20.294Z,20.25
2023-03-11T02:58:20.426Z,20.25
2023-03-11T02:59:20.412Z,20.27
2023-03-11T03:00:20.497Z,20.25
2023-03-11T03:01:20.655Z,20.27
2023-03-11T03:02:20.654Z,20.23
2023-03-11T03:03:20.641Z,20.24
2023-03-11T03:04:20.790Z,20.23
2023-03-11T03:05:20.756Z,20.24
2023-03-11T03:06:20.784Z,20.23
2023-03-11T03:07:20.819Z,20.23
2023-03-11T03:08:20.866Z,20.23
2023-03-11T03:09:20.915Z,20.24
2023-03-11T03:10:20.958Z,20.23
2023-03-11T03:11:21.026Z,20.25
2023-03-11T03:12:21.060Z,20.23
2023-03-11T03:13:21.105Z,20.21
2023-03-11T03:14:21.154Z,20.20
2023-03-11T03:15:21.181Z,20.21
2023-03-11T03:16:21.331Z,20.21
2023-03-11T03:17:21.299Z,20.20
2023-03-11T03:18:21.281Z,20.21
2023-03-11T03:19:21.376Z,20.21
2023-03-11T03:20:21.335Z,20.23
2023-03-11T05:13:22.639Z,20.10
2023-03-11T05:14:22.623Z,20.13
2023-03-11T05:15:22.616Z,20.10
2023-03-11T05:16:22.853Z,20.11
2023-03-11T05:17:22.618Z,20.09
2023-03-11T05:18:22.644Z,20.10
2023-03-11T05:19:22.590Z,20.10
2023-03-11T05:20:22.614Z,20.10
2023-03-11T05:21:22.616Z,20.10
2023-03-11T05:22:22.634Z,20.10
2023-03-11T05:23:22.658Z,20.09
2023-03-11T05:24:22.675Z,20.10
2023-03-11T05:25:22.670Z,20.10
2023-03-11T05:26:22.690Z,20.09
2023-03-11T05:27:22.687Z,20.10
2023-03-11T05:28:22.691Z,20.09
2023-03-11T05:29:22.688Z,20.09
2023-03-11T05:30:22.694Z,20.10
2023-03-11T05:31:22.713Z,20.10
2023-03-11T05:32:22.743Z,20.09
2023-03-11T05:33:22.676Z,20.11
2023-03-11T05:34:22.676Z,20.07
2023-03-11T05:35:22.768Z,20.07
2023-03-11T05:36:22.694Z,20.07
2023-03-11T05:37:22.680Z,20.09
2023-03-11T05:38:22.680Z,20.07
2023-03-11T05:39:22.677Z,20.09
2023-03-11T05:40:22.697Z,20.09
2023-03-11T05:41:22.699Z,20.09
2023-03-11T05:42:22.684Z,20.06
2023-03-11T05:43:22.693Z,20.07
2023-03-11T05:44:22.694Z,20.07
2023-03-11T05:45:22.693Z,20.09
2023-03-11T05:46:22.740Z,20.10
2023-03-11T05:47:22.670Z,20.09
2023-03-11T05:48:22.681Z,20.06
2023-03-11T05:49:22.680Z,20.09
2023-03-11T05:50:22.678Z,20.07
2023-03-11T05:51:22.694Z,20.07
2023-03-11T05:52:22.688Z,20.10
2023-03-11T05:53:22.669Z,20.10
2023-03-11T05:54:22.666Z,20.07
2023-03-11T05:55:23.373Z,20.07
2023-03-11T05:56:22.661Z,20.07
2023-03-11T05:57:22.809Z,20.09
2023-03-11T05:58:22.666Z,20.07
2023-03-11T05:59:22.659Z,20.06
2023-03-11T06:00:22.662Z,20.07
2023-03-11T06:01:22.652Z,20.07
2023-03-11T06:02:22.646Z,20.06
2023-03-11T06:03:22.653Z,20.07
2023-03-11T06:04:22.709Z,20.07
2023-03-11T06:05:22.738Z,20.07
2023-03-11T06:06:22.666Z,20.04
2023-03-11T06:07:22.685Z,20.06
2023-03-11T06:08:22.675Z,20.07
2023-03-11T06:09:22.682Z,20.06
2023-03-11T06:10:22.694Z,20.04
2023-03-11T06:11:22.703Z,20.04
2023-03-11T06:12:22.776Z,20.04
2023-03-11T06:13:22.729Z,20.04
2023-03-11T06:14:22.744Z,20.06
2023-03-11T06:15:22.755Z,20.04
2023-03-11T06:16:22.792Z,20.04
2023-03-11T06:17:22.765Z,20.07
2023-03-11T06:18:22.779Z,20.04
2023-03-11T06:19:22.803Z,20.04
2023-03-11T06:20:22.826Z,20.04
2023-03-11T06:21:22.835Z,20.04
2023-03-11T06:22:22.843Z,20.06
2023-03-11T06:23:22.862Z,20.04
2023-03-11T06:24:22.834Z,20.03
2023-03-11T06:25:22.834Z,20.07
2023-03-11T06:26:22.841Z,20.06
2023-03-11T06:27:22.877Z,20.04
2023-03-11T06:28:22.898Z,20.03
2023-03-11T06:29:22.946Z,20.07
2023-03-11T06:30:22.948Z,20.06
2023-03-11T06:31:23.077Z,20.03
2023-03-11T06:32:23.000Z,20.06
2023-03-11T06:33:22.951Z,20.07
2023-03-11T06:34:22.964Z,20.04
2023-03-11T06:35:22.968Z,20.03
2023-03-11T06:36:22.983Z,20.04
2023-03-11T06:37:22.983Z,20.03
2023-03-11T06:38:23.028Z,20.06
2023-03-11T06:39:23.022Z,20.04
2023-03-11T06:40:23.024Z,20.03
2023-03-11T06:41:23.025Z,20.04
2023-03-11T06:42:23.032Z,20.06
2023-03-11T06:43:23.035Z,20.04
2023-03-11T06:44:23.037Z,20.04
2023-03-11T06:45:23.809Z,20.04
2023-03-11T06:46:23.048Z,20.04
2023-03-11T06:47:23.101Z,20.04
2023-03-11T06:48:23.058Z,20.03
2023-03-11T06:49:23.064Z,20.04
2023-03-11T06:50:23.062Z,20.04
2023-03-11T06:51:23.058Z,20.06
2023-03-11T06:52:23.138Z,20.04
2023-03-11T06:53:23.040Z,20.06
2023-03-11T06:54:23.041Z,20.06
2023-03-11T06:55:23.041Z,20.09
2023-03-11T08:11:23.232Z,20.01
2023-03-11T08:17:23.260Z,20.01
2023-03-11T08:18:23.357Z,20.03
2023-03-11T08:19:23.256Z,20.04
2023-03-11T08:20:23.244Z,20.01
2023-03-11T08:21:23.245Z,20.03
2023-03-11T08:22:23.229Z,20.03
2023-03-11T08:23:23.212Z,20.01
2023-03-11T08:24:23.204Z,20.04
2023-03-11T08:25:23.201Z,20.04
2023-03-11T08:26:23.195Z,20.03
2023-03-11T08:27:23.185Z,20.01
2023-03-11T08:28:23.168Z,20.01
2023-03-11T08:29:23.169Z,20.01
2023-03-11T08:30:23.162Z,20.01
2023-03-11T08:31:23.259Z,20.04
2023-03-11T08:32:23.193Z,20.04
2023-03-11T08:33:23.144Z,20.03
2023-03-11T08:34:23.129Z,19.99
2023-03-11T08:35:23.125Z,20.00
2023-03-11T08:36:23.134Z,20.04
2023-03-11T08:37:24.377Z,20.01
2023-03-11T08:38:23.117Z,19.99
2023-03-11T08:39:23.102Z,20.01
2023-03-11T08:40:23.119Z,20.01
2023-03-11T08:41:23.110Z,20.03
2023-03-11T08:42:23.129Z,20.00
2023-03-11T08:43:23.126Z,20.04
2023-03-11T08:44:23.112Z,20.03
2023-03-11T08:45:23.094Z,19.99
2023-03-11T08:46:23.163Z,20.01
2023-03-11T08:47:23.082Z,20.01
2023-03-11T08:48:23.088Z,20.01
2023-03-11T08:49:23.085Z,20.00
2023-03-11T08:50:23.059Z,20.00
2023-03-11T08:51:23.060Z,20.00
2023-03-11T08:52:23.049Z,20.00
2023-03-11T08:53:23.066Z,20.00
2023-03-11T08:54:23.848Z,20.01
2023-03-11T08:55:23.010Z,20.00
2023-03-11T08:56:23.011Z,20.00
2023-03-11T08:57:23.010Z,20.01
2023-03-11T08:58:22.982Z,20.01
2023-03-11T08:59:22.984Z,20.01
2023-03-11T09:00:22.964Z,20.01
2023-03-11T09:01:22.953Z,20.00
2023-03-11T09:02:23.005Z,20.01
2023-03-11T09:03:22.934Z,20.00
2023-03-11T09:04:22.943Z,20.01
2023-03-11T09:05:22.945Z,20.01
2023-03-11T09:06:22.931Z,20.00
2023-03-11T09:07:22.910Z,19.99
2023-03-11T09:08:22.915Z,20.01
2023-03-11T09:09:22.898Z,20.01
2023-03-11T09:10:22.901Z,20.01
2023-03-11T09:11:22.959Z,20.03
2023-03-11T09:12:22.889Z,20.01
2023-03-11T09:13:22.870Z,19.99
2023-03-11T09:14:22.873Z,20.03
2023-03-11T09:15:22.859Z,20.04
2023-03-11T09:16:22.990Z,20.00
2023-03-11T09:17:22.941Z,20.01
2023-03-11T09:18:22.868Z,20.00
2023-03-11T09:19:22.877Z,20.01
2023-03-11T09:20:22.865Z,20.00
2023-03-11T09:21:22.886Z,20.03
2023-03-11T09:22:22.875Z,20.01
2023-03-11T09:23:22.890Z,20.03
2023-03-11T09:24:22.886Z,20.01
2023-03-11T09:25:22.885Z,20.03
2023-03-11T09:26:22.871Z,20.00
2023-03-11T09:27:22.885Z,20.00
2023-03-11T09:28:22.880Z,20.00
2023-03-11T09:29:22.853Z,20.00
2023-03-11T09:30:22.839Z,20.00
2023-03-11T09:31:23.410Z,20.00
2023-03-11T09:32:22.895Z,20.01
2023-03-11T09:33:23.370Z,20.00
2023-03-11T09:34:22.835Z,20.00
2023-03-11T09:35:22.855Z,19.99
2023-03-11T09:36:22.831Z,19.99
2023-03-11T09:37:22.901Z,20.01
2023-03-11T09:38:22.821Z,20.00
2023-03-11T09:39:22.845Z,19.99
2023-03-11T09:40:22.850Z,20.00
2023-03-11T09:41:22.863Z,19.99
2023-03-11T09:42:22.838Z,20.01
2023-03-11T09:43:22.820Z,20.01
2023-03-11T09:44:22.833Z,20.01
2023-03-11T09:45:22.821Z,20.01
2023-03-11T09:46:22.827Z,20.01
2023-03-11T09:47:22.840Z,20.01
2023-03-11T09:48:22.934Z,20.01
2023-03-11T09:49:22.819Z,20.00
2023-03-11T09:50:22.842Z,20.00
2023-03-11T09:51:22.937Z,19.99
2023-03-11T09:52:22.837Z,20.01
2023-03-11T09:53:22.856Z,20.00
2023-03-11T09:54:22.863Z,20.00
2023-03-11T09:55:22.855Z,20.03
2023-03-11T09:56:22.857Z,19.99
2023-03-11T09:57:22.859Z,20.00
2023-03-11T09:58:22.860Z,20.01
2023-03-11T09:59:22.842Z,20.01
2023-03-11T10:00:22.886Z,20.01
2023-03-11T10:01:23.368Z,20.03
2023-03-11T10:02:22.921Z,20.03
2023-03-11T10:03:22.893Z,20.01
2023-03-11T10:04:22.863Z,20.03
2023-03-11T10:05:22.847Z,20.03
2023-03-11T10:06:22.851Z,20.00
2023-03-11T10:07:22.873Z,20.03
2023-03-11T10:08:22.849Z,20.00
2023-03-11T10:09:22.844Z,20.01
2023-03-11T10:10:22.859Z,20.03
2023-03-11T10:11:22.842Z,20.01
2023-03-11T10:12:22.894Z,20.03
2023-03-11T10:13:22.815Z,20.01
2023-03-11T10:14:22.821Z,20.03
2023-03-11T10:15:22.807Z,20.01
2023-03-11T10:16:22.822Z,20.03
2023-03-11T10:17:22.816Z,20.01
2023-03-11T10:18:22.802Z,20.00
2023-03-11T10:19:22.852Z,20.01
2023-03-11T10:20:22.824Z,20.00
2023-03-11T10:21:25.519Z,19.99
2023-03-11T10:22:22.822Z,20.01
2023-03-11T10:23:22.836Z,20.01
2023-03-11T10:24:22.803Z,20.01
2023-03-11T10:25:22.870Z,20.00
2023-03-11T10:26:22.781Z,20.01
2023-03-11T10:27:22.782Z,20.00
2023-03-11T10:28:22.765Z,19.99
2023-03-11T10:29:22.748Z,20.00
2023-03-11T10:30:22.731Z,20.03
2023-03-11T10:31:22.909Z,20.01
2023-03-11T10:32:22.730Z,20.00
2023-03-11T10:33:22.709Z,20.00
2023-03-11T10:34:22.710Z,20.01
2023-03-11T10:35:22.707Z,20.00
2023-03-11T10:36:22.682Z,20.01
2023-03-11T10:37:22.758Z,20.00
2023-03-11T10:38:22.666Z,20.03
2023-03-11T10:39:22.652Z,19.99
2023-03-11T10:40:23.971Z,20.00
2023-03-11T10:41:22.632Z,20.00
2023-03-11T10:42:22.625Z,19.99
2023-03-11T10:43:22.616Z,19.99
2023-03-11T10:44:22.620Z,20.01
2023-03-11T10:45:22.606Z,19.97
2023-03-11T10:46:22.612Z,20.01
2023-03-11T10:47:22.581Z,20.01
2023-03-11T10:48:22.593Z,19.99
2023-03-11T10:49:22.556Z,20.00
2023-03-11T10:50:22.554Z,19.97
2023-03-11T10:51:22.557Z,20.00
2023-03-11T10:52:22.522Z,20.01
2023-03-11T10:53:22.511Z,20.00
2023-03-11T10:54:22.520Z,20.00
2023-03-11T10:55:22.503Z,20.00
2023-03-11T10:56:22.482Z,19.99
2023-03-11T10:57:22.549Z,19.99
2023-03-11T10:58:22.471Z,19.97
2023-03-11T10:59:22.449Z,19.99
2023-03-11T11:00:23.401Z,20.00
2023-03-11T11:01:22.544Z,19.97
2023-03-11T11:02:22.420Z,19.99
2023-03-11T11:03:22.412Z,20.00
2023-03-11T11:04:22.439Z,19.99
2023-03-11T16:53:29.534Z,19.82
2023-03-11T17:05:28.916Z,19.77
2023-03-11T17:06:28.939Z,19.79
2023-03-11T17:07:28.950Z,19.79
2023-03-11T17:08:28.956Z,19.80
2023-03-11T17:09:28.971Z,19.80
2023-03-11T17:10:29.047Z,19.80
2023-03-11T17:11:29.011Z,19.77
2023-03-11T17:12:29.032Z,19.79
2023-03-11T17:13:29.044Z,19.80
2023-03-11T17:14:29.065Z,19.77
2023-03-11T17:15:29.072Z,19.80
2023-03-11T17:19:29.128Z,19.79
2023-03-11T17:24:29.214Z,19.79
2023-03-11T17:26:29.233Z,19.77
2023-03-11T17:27:29.253Z,19.77
2023-03-11T17:28:29.272Z,19.77
2023-03-11T17:29:29.309Z,19.79
2023-03-11T17:30:36.730Z,19.77
2023-03-11T17:32:29.358Z,19.76
2023-03-11T17:33:29.322Z,19.76
2023-03-11T17:45:29.313Z,19.76
2023-03-11T19:14:31.258Z,19.70
2023-03-11T19:27:31.567Z,19.73
2023-03-11T19:52:32.224Z,19.73
2023-03-11T23:29:39.188Z,19.63
2023-03-11T23:33:39.200Z,19.63
2023-03-11T23:44:39.701Z,19.61
2023-03-11T23:47:38.937Z,19.61
2023-03-11T23:48:38.970Z,19.63
2023-03-11T23:49:39.010Z,19.63
2023-03-11T23:50:39.049Z,19.62
2023-03-11T23:51:39.082Z,19.62
2023-03-11T23:52:39.125Z,19.63
2023-03-11T23:53:39.200Z,19.61
2023-03-11T23:54:39.194Z,19.61
2023-03-11T23:55:39.216Z,19.62
2023-03-11T23:56:39.248Z,19.61
2023-03-11T23:57:39.713Z,19.63
2023-03-11T23:58:39.320Z,19.63
2023-03-11T23:59:39.358Z,19.62
